Time;durP1;ratioP1;P1;durP2;ratioP2;P2;SDS_P1;SDS_P2;PMS_P1;PMS_P2;Temp;Humidity;BMP_temperature;BMP_pressure;BME280_temperature;BME280_humidity;BME280_pressure;Samples;Min_cycle;Max_cycle;Signal;HPM_P1;HPM_P2
2022/07/10 00:00:10;;;;;;;;;;;13.80;99.90;;;;;;5119752;27;19919;-74
2022/07/10 00:02:36;;;;;;;;;;;13.80;99.90;;;;;;5113814;27;19942;-74
2022/07/10 00:05:02;;;;;;;;;;;13.80;99.90;;;;;;5118748;27;19994;-74
2022/07/10 00:07:28;;;;;;;;;;;13.70;99.90;;;;;;5118454;27;19981;-74
2022/07/10 00:09:53;;;;;;;;;;;13.70;99.90;;;;;;5122237;27;19919;-74
2022/07/10 00:12:19;;;;;;;;;;;13.60;99.90;;;;;;5098227;27;20006;-74
2022/07/10 00:14:44;;;;;;;;;;;13.60;99.90;;;;;;5121933;27;20329;-74
2022/07/10 00:17:10;;;;;;;;;;;13.50;99.90;;;;;;5122766;27;19915;-74
2022/07/10 00:19:36;;;;;;;;;;;13.50;99.90;;;;;;5102138;27;19923;-74
2022/07/10 00:22:01;;;;;;;;;;;13.50;99.90;;;;;;5105078;27;19915;-74
2022/07/10 00:24:27;;;;;;;;;;;13.40;99.90;;;;;;5151590;27;20290;-73
2022/07/10 00:26:53;;;;;;;;;;;13.40;99.90;;;;;;5126172;27;19922;-75
2022/07/10 00:29:18;;;;;;;;;;;13.40;99.90;;;;;;5125385;27;19923;-74
2022/07/10 00:31:44;;;;;;;;;;;13.40;99.90;;;;;;5133164;27;19922;-75
2022/07/10 00:34:10;;;;;;;;;;;13.50;99.90;;;;;;5113237;27;19919;-74
2022/07/10 00:36:36;;;;;;;;;;;13.60;99.90;;;;;;5124722;27;20019;-74
2022/07/10 00:39:01;;;;;;;;;;;13.60;99.90;;;;;;5122166;27;20005;-75
2022/07/10 00:41:27;;;;;;;;;;;13.70;99.90;;;;;;5124826;27;20400;-74
2022/07/10 00:43:54;;;;;;;;;;;13.70;99.90;;;;;;5121892;27;19923;-75
2022/07/10 00:46:20;;;;;;;;;;;13.70;99.90;;;;;;5124798;27;19960;-74
2022/07/10 00:48:47;;;;;;;;;;;13.70;99.90;;;;;;5119755;27;20329;-75
2022/07/10 00:51:12;;;;;;;;;;;13.60;99.90;;;;;;5126037;27;20241;-74
2022/07/10 00:53:38;;;;;;;;;;;13.60;99.90;;;;;;5125008;27;19930;-73
2022/07/10 00:56:05;;;;;;;;;;;13.50;99.90;;;;;;5115341;27;19915;-75
2022/07/10 00:58:30;;;;;;;;;;;13.50;99.90;;;;;;5108295;27;19923;-74
2022/07/10 01:00:56;;;;;;;;;;;13.50;99.90;;;;;;5123363;27;19919;-74
2022/07/10 01:03:22;;;;;;;;;;;13.50;99.90;;;;;;5127131;27;19920;-73
2022/07/10 01:05:47;;;;;;;;;;;13.50;99.90;;;;;;5111691;27;20471;-73
2022/07/10 01:08:13;;;;;;;;;;;13.50;99.90;;;;;;5123826;27;19915;-74
2022/07/10 01:10:39;;;;;;;;;;;13.50;99.90;;;;;;5119818;27;20364;-74
2022/07/10 01:13:05;;;;;;;;;;;13.60;99.90;;;;;;5124980;27;19916;-74
2022/07/10 01:15:32;;;;;;;;;;;13.60;99.90;;;;;;5127053;27;19915;-74
2022/07/10 01:17:59;;;;;;;;;;;13.60;99.90;;;;;;5141355;27;20387;-74
2022/07/10 01:20:30;;;;;;;;;;;13.50;99.90;;;;;;5131457;27;20051;-74
2022/07/10 01:22:55;;;;;;;;;;;13.50;99.90;;;;;;5128609;27;20288;-74
2022/07/10 01:25:21;;;;;;;;;;;13.50;99.90;;;;;;5126095;27;19922;-74
2022/07/10 01:27:46;;;;;;;;;;;13.50;99.90;;;;;;5119456;27;19922;-74
2022/07/10 01:30:12;;;;;;;;;;;13.50;99.90;;;;;;5127586;27;20347;-74
2022/07/10 01:32:39;;;;;;;;;;;13.50;99.90;;;;;;5112379;27;19918;-73
2022/07/10 01:35:05;;;;;;;;;;;13.50;99.90;;;;;;5132370;27;20355;-75
2022/07/10 01:37:31;;;;;;;;;;;13.50;99.90;;;;;;5124014;27;19921;-73
2022/07/10 01:39:57;;;;;;;;;;;13.50;99.90;;;;;;5123386;27;20372;-74
2022/07/10 01:42:23;;;;;;;;;;;13.50;99.90;;;;;;5127409;27;19996;-75
2022/07/10 01:44:48;;;;;;;;;;;13.50;99.90;;;;;;5100308;27;19922;-74
2022/07/10 01:47:15;;;;;;;;;;;13.50;99.90;;;;;;5128087;27;19921;-75
2022/07/10 01:49:40;;;;;;;;;;;13.50;99.90;;;;;;5103257;27;19915;-75
2022/07/10 01:52:06;;;;;;;;;;;13.40;99.90;;;;;;5104883;27;20015;-75
2022/07/10 01:54:32;;;;;;;;;;;13.40;99.90;;;;;;5109150;27;19919;-75
2022/07/10 01:56:57;;;;;;;;;;;13.50;99.90;;;;;;5111661;27;19937;-75
2022/07/10 01:59:23;;;;;;;;;;;13.50;99.90;;;;;;5126231;27;19915;-74
2022/07/10 02:01:49;;;;;;;;;;;13.50;99.90;;;;;;5111920;27;19968;-74
2022/07/10 02:06:58;;;;;;;;;;;13.40;99.90;;;;;;5121876;27;20197;-74
2022/07/10 02:09:24;;;;;;;;;;;13.30;99.90;;;;;;5125678;27;19919;-74
2022/07/10 02:11:49;;;;;;;;;;;13.40;99.90;;;;;;5121563;27;19919;-74
2022/07/10 02:14:15;;;;;;;;;;;13.40;99.90;;;;;;5104044;27;19961;-73
2022/07/10 02:16:41;;;;;;;;;;;13.40;99.90;;;;;;5123601;27;19919;-74
2022/07/10 02:19:06;;;;;;;;;;;13.30;99.90;;;;;;5119947;27;19959;-74
2022/07/10 02:21:32;;;;;;;;;;;13.30;99.90;;;;;;5122234;27;20002;-73
2022/07/10 02:23:57;;;;;;;;;;;13.20;99.90;;;;;;5130770;27;19949;-74
2022/07/10 02:26:23;;;;;;;;;;;13.10;99.90;;;;;;5120690;27;19969;-74
2022/07/10 02:28:48;;;;;;;;;;;13.10;99.90;;;;;;5124373;27;19915;-75
2022/07/10 02:31:14;;;;;;;;;;;13.10;99.90;;;;;;5129901;27;19958;-74
2022/07/10 02:33:40;;;;;;;;;;;13.10;99.90;;;;;;5130288;27;19914;-74
2022/07/10 02:36:05;;;;;;;;;;;13.20;99.90;;;;;;5128810;27;19959;-73
2022/07/10 02:38:31;;;;;;;;;;;13.20;99.90;;;;;;5125701;27;19922;-75
2022/07/10 02:40:56;;;;;;;;;;;13.20;99.90;;;;;;5117080;27;19926;-74
2022/07/10 02:43:22;;;;;;;;;;;13.30;99.90;;;;;;5115428;27;19966;-74
2022/07/10 02:45:48;;;;;;;;;;;13.30;99.90;;;;;;5120918;27;19925;-74
2022/07/10 02:48:17;;;;;;;;;;;13.40;99.90;;;;;;5120801;27;20288;-74
2022/07/10 02:50:43;;;;;;;;;;;13.40;99.90;;;;;;5124116;27;19922;-74
2022/07/10 02:53:09;;;;;;;;;;;13.40;99.90;;;;;;5122734;27;19919;-73
2022/07/10 02:55:34;;;;;;;;;;;13.50;99.90;;;;;;5118763;27;19916;-74
2022/07/10 02:58:00;;;;;;;;;;;13.50;99.90;;;;;;5116481;27;19915;-74
2022/07/10 03:00:26;;;;;;;;;;;13.40;99.90;;;;;;5146246;27;19919;-74
2022/07/10 03:02:52;;;;;;;;;;;13.40;99.90;;;;;;5124933;27;20009;-75
2022/07/10 03:05:18;;;;;;;;;;;13.40;99.90;;;;;;5116986;27;20006;-73
2022/07/10 03:07:43;;;;;;;;;;;13.40;99.90;;;;;;5140112;27;20002;-74
2022/07/10 03:10:09;;;;;;;;;;;13.30;99.90;;;;;;5123113;27;19919;-74
2022/07/10 03:12:34;;;;;;;;;;;13.30;99.90;;;;;;5124652;27;19924;-74
2022/07/10 03:15:00;;;;;;;;;;;13.20;99.90;;;;;;5105336;27;19919;-73
2022/07/10 03:17:26;;;;;;;;;;;13.20;99.90;;;;;;5143819;27;20009;-73
2022/07/10 03:19:51;;;;;;;;;;;13.20;99.90;;;;;;5137922;27;19981;-73
2022/07/10 03:22:17;;;;;;;;;;;13.20;99.90;;;;;;5118242;27;19985;-74
2022/07/10 03:24:46;;;;;;;;;;;13.30;99.90;;;;;;5109419;27;19936;-74
2022/07/10 03:27:13;;;;;;;;;;;13.40;99.90;;;;;;5116341;27;20446;-74
2022/07/10 03:29:46;;;;;;;;;;;13.40;99.90;;;;;;5129908;27;20325;-74
2022/07/10 03:32:11;;;;;;;;;;;13.40;99.90;;;;;;5111646;27;20002;-73
2022/07/10 03:34:37;;;;;;;;;;;13.50;99.90;;;;;;5148681;27;20063;-74
2022/07/10 03:37:03;;;;;;;;;;;13.60;99.90;;;;;;5121168;27;19916;-74
2022/07/10 03:39:28;;;;;;;;;;;13.60;99.90;;;;;;5126192;28;19923;-74
2022/07/10 03:41:54;;;;;;;;;;;13.70;99.90;;;;;;5125613;27;19998;-74
2022/07/10 03:44:20;;;;;;;;;;;13.80;99.90;;;;;;5121104;27;19960;-75
2022/07/10 03:46:46;;;;;;;;;;;13.90;99.90;;;;;;5138822;27;19919;-75
2022/07/10 03:49:11;;;;;;;;;;;14.00;99.90;;;;;;5103296;27;19915;-74
2022/07/10 03:51:37;;;;;;;;;;;14.10;99.90;;;;;;5129287;27;19919;-75
2022/07/10 03:54:02;;;;;;;;;;;14.10;99.90;;;;;;5120050;27;19915;-74
2022/07/10 03:59:12;;;;;;;;;;;14.30;99.90;;;;;;5133702;27;20280;-74
2022/07/10 04:01:38;;;;;;;;;;;14.30;99.90;;;;;;5110096;27;19919;-74
2022/07/10 04:04:03;;;;;;;;;;;14.40;99.90;;;;;;5127495;27;19965;-73
2022/07/10 04:06:29;;;;;;;;;;;14.40;99.90;;;;;;5140823;27;20063;-73
2022/07/10 04:08:55;;;;;;;;;;;14.40;99.90;;;;;;5121954;27;20378;-74
2022/07/10 04:11:21;;;;;;;;;;;14.40;99.90;;;;;;5140329;27;20356;-74
2022/07/10 04:13:46;;;;;;;;;;;14.40;99.90;;;;;;5145726;27;19915;-73
2022/07/10 04:16:12;;;;;;;;;;;14.40;99.90;;;;;;5105492;27;19920;-73
2022/07/10 04:18:41;;;;;;;;;;;14.40;99.90;;;;;;5108547;27;20380;-74
2022/07/10 04:21:07;;;;;;;;;;;14.40;99.90;;;;;;5127079;27;20347;-74
2022/07/10 04:23:33;;;;;;;;;;;14.50;99.90;;;;;;5131758;27;20006;-74
2022/07/10 04:25:58;;;;;;;;;;;14.50;99.90;;;;;;5122558;27;20399;-74
2022/07/10 04:28:25;;;;;;;;;;;14.50;99.90;;;;;;5129382;27;19916;-74
2022/07/10 04:30:52;;;;;;;;;;;14.60;99.90;;;;;;5115223;27;19919;-75
2022/07/10 04:33:18;;;;;;;;;;;14.60;99.90;;;;;;5147774;27;19923;-75
2022/07/10 04:35:43;;;;;;;;;;;14.60;99.90;;;;;;5147142;27;19915;-74
2022/07/10 04:38:09;;;;;;;;;;;14.60;99.90;;;;;;5137285;27;19915;-74
2022/07/10 04:40:34;;;;;;;;;;;14.60;99.90;;;;;;5101601;27;19919;-75
2022/07/10 04:43:00;;;;;;;;;;;14.70;99.90;;;;;;5116185;27;20044;-74
2022/07/10 04:45:28;;;;;;;;;;;14.70;99.90;;;;;;5124817;27;19923;-75
2022/07/10 04:47:55;;;;;;;;;;;14.80;99.90;;;;;;5115700;27;20369;-74
2022/07/10 04:50:20;;;;;;;;;;;14.80;99.90;;;;;;5124003;27;20339;-74
2022/07/10 04:52:46;;;;;;;;;;;14.80;99.90;;;;;;5103410;27;19954;-74
2022/07/10 04:55:18;;;;;;;;;;;14.90;99.90;;;;;;5101447;27;19922;-74
2022/07/10 04:57:51;;;;;;;;;;;14.90;99.90;;;;;;5117384;27;19916;-74
2022/07/10 05:00:17;;;;;;;;;;;14.90;99.90;;;;;;5126458;27;19985;-73
2022/07/10 05:02:42;;;;;;;;;;;14.90;99.90;;;;;;5124364;27;19916;-74
2022/07/10 05:05:10;;;;;;;;;;;15.00;99.90;;;;;;5117348;27;19919;-74
2022/07/10 05:07:37;;;;;;;;;;;15.00;99.90;;;;;;5102302;27;20353;-75
2022/07/10 05:10:02;;;;;;;;;;;15.10;99.90;;;;;;5127440;27;19919;-74
2022/07/10 05:12:28;;;;;;;;;;;15.10;99.90;;;;;;5108916;27;19927;-74
2022/07/10 05:14:54;;;;;;;;;;;15.20;99.90;;;;;;5121474;27;20346;-73
2022/07/10 05:17:20;;;;;;;;;;;15.20;99.90;;;;;;5123450;27;19995;-74
2022/07/10 05:19:45;;;;;;;;;;;15.20;99.90;;;;;;5099597;28;20342;-75
2022/07/10 05:22:11;;;;;;;;;;;15.20;99.90;;;;;;5120428;27;20330;-74
2022/07/10 05:24:36;;;;;;;;;;;15.20;99.90;;;;;;5114888;27;19994;-74
2022/07/10 05:27:02;;;;;;;;;;;15.30;99.90;;;;;;5123908;27;20363;-75
2022/07/10 05:29:31;;;;;;;;;;;15.30;99.90;;;;;;5115500;27;19916;-75
2022/07/10 05:31:56;;;;;;;;;;;15.40;99.90;;;;;;5125548;27;19919;-73
2022/07/10 05:34:22;;;;;;;;;;;15.40;99.90;;;;;;5129335;27;19926;-75
2022/07/10 05:36:47;;;;;;;;;;;15.50;99.90;;;;;;5122763;27;19927;-74
2022/07/10 05:39:13;;;;;;;;;;;15.50;99.90;;;;;;5129716;27;20001;-74
2022/07/10 05:41:39;;;;;;;;;;;15.60;99.90;;;;;;5128093;27;19925;-74
2022/07/10 05:44:04;;;;;;;;;;;15.60;99.90;;;;;;5100108;27;19915;-75
2022/07/10 05:46:30;;;;;;;;;;;15.60;99.90;;;;;;5111196;27;19918;-74
2022/07/10 05:48:56;;;;;;;;;;;15.60;99.90;;;;;;5119048;27;19943;-74
2022/07/10 05:51:24;;;;;;;;;;;15.60;99.90;;;;;;5138949;27;19915;-75
2022/07/10 05:53:50;;;;;;;;;;;15.60;99.90;;;;;;5129207;27;20347;-74
2022/07/10 05:56:15;;;;;;;;;;;15.50;99.90;;;;;;5123717;27;19987;-75
2022/07/10 05:58:41;;;;;;;;;;;15.60;99.90;;;;;;5130952;27;20009;-74
2022/07/10 06:01:06;;;;;;;;;;;15.50;99.90;;;;;;5106265;27;19915;-73
2022/07/10 06:03:32;;;;;;;;;;;15.60;99.90;;;;;;5125381;27;19982;-75
2022/07/10 06:05:59;;;;;;;;;;;15.50;99.90;;;;;;5136333;27;19930;-73
2022/07/10 06:08:25;;;;;;;;;;;15.50;99.90;;;;;;5140378;27;20284;-74
2022/07/10 06:10:51;;;;;;;;;;;15.50;99.90;;;;;;5142507;27;19915;-74
2022/07/10 06:13:17;;;;;;;;;;;15.40;99.90;;;;;;5123082;27;19915;-75
2022/07/10 06:15:42;;;;;;;;;;;15.50;99.90;;;;;;5120291;27;20401;-73
2022/07/10 06:18:08;;;;;;;;;;;15.50;99.90;;;;;;5122961;27;19958;-75
2022/07/10 06:20:35;;;;;;;;;;;15.60;99.90;;;;;;5102503;27;19976;-74
2022/07/10 06:23:01;;;;;;;;;;;15.60;99.90;;;;;;5125063;27;19919;-74
2022/07/10 06:25:26;;;;;;;;;;;15.60;99.90;;;;;;5123406;27;19922;-74
2022/07/10 06:27:53;;;;;;;;;;;15.60;99.90;;;;;;5132622;27;19915;-75
2022/07/10 06:30:19;;;;;;;;;;;15.60;99.90;;;;;;5119126;27;19915;-74
2022/07/10 06:32:44;;;;;;;;;;;15.60;99.90;;;;;;5131209;27;19921;-75
2022/07/10 06:35:10;;;;;;;;;;;15.60;99.90;;;;;;5130878;27;19915;-74
2022/07/10 06:37:36;;;;;;;;;;;15.50;99.90;;;;;;5123405;27;19971;-74
2022/07/10 06:40:02;;;;;;;;;;;15.50;99.90;;;;;;5121459;27;19964;-74
2022/07/10 06:42:27;;;;;;;;;;;15.40;99.90;;;;;;5128759;27;19938;-75
2022/07/10 06:44:53;;;;;;;;;;;15.40;99.90;;;;;;5109787;27;20372;-75
2022/07/10 06:50:07;;;;;;;;;;;15.40;99.90;;;;;;5140944;27;19922;-75
2022/07/10 06:52:35;;;;;;;;;;;15.40;99.90;;;;;;5139486;27;20411;-75
2022/07/10 06:55:02;;;;;;;;;;;15.50;99.90;;;;;;5106164;27;19915;-75
2022/07/10 06:57:28;;;;;;;;;;;15.70;99.90;;;;;;5131771;27;19967;-74
2022/07/10 06:59:53;;;;;;;;;;;15.70;99.90;;;;;;5122179;27;19923;-74
2022/07/10 07:02:19;;;;;;;;;;;15.70;99.90;;;;;;5148818;27;19923;-74
2022/07/10 07:04:45;;;;;;;;;;;15.80;99.90;;;;;;5107697;27;19998;-75
2022/07/10 07:07:15;;;;;;;;;;;15.80;99.90;;;;;;5139892;27;20028;-75
2022/07/10 07:09:41;;;;;;;;;;;15.90;99.90;;;;;;5092547;27;20288;-75
2022/07/10 07:12:07;;;;;;;;;;;16.00;99.90;;;;;;5119360;27;19919;-74
2022/07/10 07:14:33;;;;;;;;;;;16.10;99.90;;;;;;5123982;27;19991;-74
2022/07/10 07:17:03;;;;;;;;;;;16.20;99.90;;;;;;5121997;27;20001;-74
2022/07/10 07:19:32;;;;;;;;;;;16.20;99.90;;;;;;5139378;27;19930;-74
2022/07/10 07:24:42;;;;;;;;;;;16.40;99.90;;;;;;5134152;27;19919;-75
2022/07/10 07:27:12;;;;;;;;;;;16.40;99.90;;;;;;5144273;27;19918;-75
2022/07/10 07:29:37;;;;;;;;;;;16.30;99.90;;;;;;5121733;27;20295;-74
2022/07/10 07:32:03;;;;;;;;;;;16.30;99.90;;;;;;5132370;27;19915;-76
2022/07/10 07:34:30;;;;;;;;;;;16.10;99.90;;;;;;5132813;27;19919;-76
2022/07/10 07:36:56;;;;;;;;;;;15.70;99.90;;;;;;5124540;27;19919;-75
2022/07/10 07:39:22;;;;;;;;;;;15.60;99.90;;;;;;5123645;27;20395;-74
2022/07/10 07:41:48;;;;;;;;;;;15.50;99.90;;;;;;5126011;27;20014;-76
2022/07/10 07:44:15;;;;;;;;;;;15.50;99.90;;;;;;5128626;27;19919;-75
2022/07/10 07:46:41;;;;;;;;;;;15.50;99.90;;;;;;5103998;27;20466;-74
2022/07/10 07:49:07;;;;;;;;;;;15.70;99.90;;;;;;5123998;27;20009;-74
2022/07/10 07:51:33;;;;;;;;;;;15.90;99.90;;;;;;5143436;27;20284;-74
2022/07/10 07:53:58;;;;;;;;;;;16.00;99.90;;;;;;5131782;27;19919;-75
2022/07/10 07:56:24;;;;;;;;;;;16.00;99.90;;;;;;5127478;27;19922;-75
2022/07/10 07:58:49;;;;;;;;;;;16.10;99.90;;;;;;5150183;27;20382;-74
2022/07/10 08:01:15;;;;;;;;;;;16.10;99.90;;;;;;5128228;27;20364;-75
2022/07/10 08:03:42;;;;;;;;;;;16.00;99.90;;;;;;5110929;27;19919;-75
2022/07/10 08:06:08;;;;;;;;;;;15.80;99.90;;;;;;5121970;27;19919;-76
2022/07/10 08:08:33;;;;;;;;;;;15.70;99.90;;;;;;5115549;27;20348;-74
2022/07/10 08:10:59;;;;;;;;;;;15.70;99.90;;;;;;5111125;27;19964;-76
2022/07/10 08:13:24;;;;;;;;;;;15.60;99.90;;;;;;5143233;27;19922;-74
2022/07/10 08:15:50;;;;;;;;;;;15.60;99.90;;;;;;5131851;27;19971;-74
2022/07/10 08:18:15;;;;;;;;;;;15.60;99.90;;;;;;5107055;27;19971;-74
2022/07/10 08:20:41;;;;;;;;;;;15.60;99.90;;;;;;5132873;27;19915;-73
2022/07/10 08:23:07;;;;;;;;;;;15.70;99.90;;;;;;5121818;27;19966;-74
2022/07/10 08:25:32;;;;;;;;;;;15.90;99.90;;;;;;5118547;27;19915;-74
2022/07/10 08:28:05;;;;;;;;;;;16.10;99.90;;;;;;5149394;27;19919;-72
2022/07/10 08:30:31;;;;;;;;;;;16.20;99.90;;;;;;5146663;27;19919;-74
2022/07/10 08:32:57;;;;;;;;;;;16.50;99.90;;;;;;5134169;27;20332;-75
2022/07/10 08:35:23;;;;;;;;;;;16.50;99.90;;;;;;5123361;27;19954;-75
2022/07/10 08:37:52;;;;;;;;;;;16.60;99.90;;;;;;5138406;27;19922;-75
2022/07/10 08:40:21;;;;;;;;;;;16.60;99.90;;;;;;5126183;27;19927;-74
2022/07/10 08:42:46;;;;;;;;;;;16.50;99.90;;;;;;5106849;27;20021;-74
2022/07/10 08:45:13;;;;;;;;;;;16.60;99.90;;;;;;5122899;27;20009;-75
2022/07/10 08:47:41;;;;;;;;;;;16.80;99.90;;;;;;5119736;27;19925;-75
2022/07/10 08:50:25;;;;;;;;;;;17.10;99.90;;;;;;5125861;27;20417;-74
2022/07/10 08:52:55;;;;;;;;;;;17.30;99.90;;;;;;5138004;27;20295;-75
2022/07/10 08:55:23;;;;;;;;;;;17.60;99.90;;;;;;5117359;27;19922;-73
2022/07/10 08:57:50;;;;;;;;;;;17.90;99.90;;;;;;5135041;27;19927;-74
2022/07/10 09:00:16;;;;;;;;;;;18.00;99.90;;;;;;5125439;27;20310;-74
2022/07/10 09:02:42;;;;;;;;;;;18.10;99.90;;;;;;5126670;27;19962;-74
2022/07/10 09:05:08;;;;;;;;;;;18.10;99.90;;;;;;5146091;27;20160;-76
2022/07/10 09:07:35;;;;;;;;;;;18.00;99.90;;;;;;5122689;27;19915;-74
2022/07/10 09:10:06;;;;;;;;;;;18.00;99.90;;;;;;5109186;27;20355;-75
2022/07/10 09:12:48;;;;;;;;;;;18.00;99.90;;;;;;5123555;27;19919;-73
2022/07/10 09:15:17;;;;;;;;;;;18.00;99.90;;;;;;5138731;27;19916;-74
2022/07/10 09:17:50;;;;;;;;;;;18.10;99.90;;;;;;5121676;27;20293;-73
2022/07/10 09:20:25;;;;;;;;;;;18.20;99.90;;;;;;5126028;27;20372;-74
2022/07/10 09:22:52;;;;;;;;;;;18.30;99.90;;;;;;5126707;27;19922;-74
2022/07/10 09:25:18;;;;;;;;;;;18.30;99.90;;;;;;5106412;27;19988;-75
2022/07/10 09:27:53;;;;;;;;;;;18.30;99.90;;;;;;5139843;27;19965;-75
2022/07/10 09:30:32;;;;;;;;;;;18.20;99.90;;;;;;5102297;27;19922;-74
2022/07/10 09:33:14;;;;;;;;;;;18.10;99.90;;;;;;5152877;27;19918;-74
2022/07/10 09:36:13;;;;;;;;;;;18.00;99.90;;;;;;5148723;27;19938;-74
2022/07/10 09:38:45;;;;;;;;;;;17.80;99.90;;;;;;5136326;27;19925;-74
2022/07/10 09:41:21;;;;;;;;;;;17.60;99.90;;;;;;5124087;27;19931;-74
2022/07/10 09:43:46;;;;;;;;;;;17.50;99.90;;;;;;5138475;27;20569;-73
2022/07/10 09:46:12;;;;;;;;;;;17.40;99.90;;;;;;5117856;27;19915;-74
2022/07/10 09:48:41;;;;;;;;;;;17.30;99.90;;;;;;5137714;27;20388;-73
2022/07/10 09:51:09;;;;;;;;;;;17.30;99.90;;;;;;5125812;27;19916;-74
2022/07/10 09:53:37;;;;;;;;;;;17.10;99.90;;;;;;5102842;27;19962;-75
2022/07/10 09:56:04;;;;;;;;;;;16.70;99.90;;;;;;5140184;27;19915;-76
2022/07/10 09:58:32;;;;;;;;;;;16.30;99.90;;;;;;5119061;27;19915;-75
2022/07/10 10:01:08;;;;;;;;;;;16.00;99.90;;;;;;5126655;27;20327;-74
2022/07/10 10:03:38;;;;;;;;;;;15.90;99.90;;;;;;5111325;27;19922;-77
2022/07/10 10:06:09;;;;;;;;;;;16.00;99.90;;;;;;5138138;27;19919;-74
2022/07/10 10:08:45;;;;;;;;;;;16.10;99.90;;;;;;5128622;27;19972;-74
2022/07/10 10:11:14;;;;;;;;;;;16.20;99.90;;;;;;5118257;27;19915;-76
2022/07/10 10:13:39;;;;;;;;;;;16.20;99.90;;;;;;5119488;27;20273;-75
2022/07/10 10:16:07;;;;;;;;;;;16.00;99.90;;;;;;5104180;27;19923;-76
2022/07/10 10:18:34;;;;;;;;;;;15.90;99.90;;;;;;5127736;27;19921;-75
2022/07/10 10:21:04;;;;;;;;;;;15.90;99.90;;;;;;5128519;27;19971;-75
2022/07/10 10:23:30;;;;;;;;;;;16.00;99.90;;;;;;5122154;27;19959;-76
2022/07/10 10:25:56;;;;;;;;;;;16.30;99.90;;;;;;5134696;27;19919;-76
2022/07/10 10:28:25;;;;;;;;;;;16.50;99.90;;;;;;5135208;27;20442;-76
2022/07/10 10:30:53;;;;;;;;;;;16.60;99.90;;;;;;5113204;27;20277;-75
2022/07/10 10:33:34;;;;;;;;;;;16.80;99.90;;;;;;5126423;27;20003;-76
2022/07/10 10:36:02;;;;;;;;;;;17.00;99.90;;;;;;5122773;27;19961;-75
2022/07/10 10:38:46;;;;;;;;;;;17.10;99.90;;;;;;5125880;27;19959;-75
2022/07/10 10:41:22;;;;;;;;;;;17.20;99.90;;;;;;5116509;27;19926;-75
2022/07/10 10:44:06;;;;;;;;;;;17.40;99.90;;;;;;5117880;27;20017;-76
2022/07/10 10:46:34;;;;;;;;;;;17.50;99.90;;;;;;5125521;27;19919;-75
2022/07/10 10:49:06;;;;;;;;;;;17.40;99.90;;;;;;5117704;27;19929;-76
2022/07/10 10:51:51;;;;;;;;;;;17.20;99.90;;;;;;5125235;27;19915;-77
2022/07/10 10:54:17;;;;;;;;;;;16.80;99.90;;;;;;5102601;27;20379;-77
2022/07/10 10:56:42;;;;;;;;;;;16.50;99.90;;;;;;5120481;27;19915;-76
2022/07/10 10:59:08;;;;;;;;;;;16.50;99.90;;;;;;5124241;27;19919;-77
2022/07/10 11:01:34;;;;;;;;;;;16.60;99.90;;;;;;5111787;27;20280;-76
2022/07/10 11:04:09;;;;;;;;;;;16.50;99.90;;;;;;5105235;27;19919;-76
2022/07/10 11:06:50;;;;;;;;;;;16.50;99.90;;;;;;5121135;27;19938;-77
2022/07/10 11:09:27;;;;;;;;;;;16.60;99.90;;;;;;5116561;27;19925;-77
2022/07/10 11:12:09;;;;;;;;;;;16.80;99.90;;;;;;5139599;27;19915;-76
2022/07/10 11:14:34;;;;;;;;;;;17.20;99.90;;;;;;5133002;27;19915;-77
2022/07/10 11:17:04;;;;;;;;;;;17.60;99.90;;;;;;5142760;27;20366;-77
2022/07/10 11:19:30;;;;;;;;;;;18.00;99.90;;;;;;5146865;27;20286;-76
2022/07/10 11:22:10;;;;;;;;;;;18.30;99.90;;;;;;5120133;27;19915;-76
2022/07/10 11:25:06;;;;;;;;;;;18.30;99.90;;;;;;5145397;27;19973;-76
2022/07/10 11:27:50;;;;;;;;;;;18.30;99.90;;;;;;5125023;27;20331;-76
2022/07/10 11:30:16;;;;;;;;;;;18.10;99.90;;;;;;5125337;27;19925;-76
2022/07/10 11:32:42;;;;;;;;;;;17.80;99.90;;;;;;5128282;27;19923;-75
2022/07/10 11:35:11;;;;;;;;;;;17.60;99.90;;;;;;5130281;27;19935;-76
2022/07/10 11:37:48;;;;;;;;;;;17.40;99.90;;;;;;5127164;27;19989;-76
2022/07/10 11:40:23;;;;;;;;;;;17.40;99.90;;;;;;5122873;27;19919;-76
2022/07/10 11:42:52;;;;;;;;;;;17.40;99.90;;;;;;5121838;27;20372;-76
2022/07/10 11:45:38;;;;;;;;;;;17.40;99.90;;;;;;5119280;27;20407;-76
2022/07/10 11:48:04;;;;;;;;;;;17.50;99.90;;;;;;5124026;27;19922;-76
2022/07/10 11:50:36;;;;;;;;;;;17.80;99.90;;;;;;5139788;27;19922;-76
2022/07/10 11:53:03;;;;;;;;;;;17.90;99.90;;;;;;5120991;27;19915;-76
2022/07/10 11:55:30;;;;;;;;;;;17.90;99.90;;;;;;5103520;27;20303;-77
2022/07/10 11:57:55;;;;;;;;;;;17.70;99.90;;;;;;5140071;27;19962;-76
2022/07/10 12:00:25;;;;;;;;;;;17.50;99.90;;;;;;5123197;27;20026;-82
2022/07/10 12:02:51;;;;;;;;;;;17.30;99.90;;;;;;5136562;27;19915;-76
2022/07/10 12:05:34;;;;;;;;;;;17.30;99.90;;;;;;5123400;27;19919;-79
2022/07/10 12:08:07;;;;;;;;;;;17.20;99.90;;;;;;5095730;27;19986;-79
2022/07/10 12:10:33;;;;;;;;;;;17.30;99.90;;;;;;5117549;27;19946;-76
2022/07/10 12:13:06;;;;;;;;;;;17.10;99.90;;;;;;5121340;27;20392;-78
2022/07/10 12:15:37;;;;;;;;;;;17.10;99.90;;;;;;5116004;28;19919;-79
2022/07/10 12:18:06;;;;;;;;;;;17.10;99.90;;;;;;5117928;27;20285;-80
2022/07/10 12:20:32;;;;;;;;;;;17.20;99.90;;;;;;5144437;27;19923;-79
2022/07/10 12:22:58;;;;;;;;;;;17.40;99.90;;;;;;5110940;27;20441;-78
2022/07/10 12:25:24;;;;;;;;;;;17.60;99.90;;;;;;5120567;27;19938;-80
2022/07/10 12:27:54;;;;;;;;;;;17.70;99.90;;;;;;5135897;27;19919;-78
2022/07/10 12:30:20;;;;;;;;;;;17.80;99.90;;;;;;5125063;27;19963;-80
2022/07/10 12:32:47;;;;;;;;;;;17.90;99.90;;;;;;5124616;27;20293;-80
2022/07/10 12:35:15;;;;;;;;;;;18.10;99.90;;;;;;5126503;27;20386;-79
2022/07/10 12:37:48;;;;;;;;;;;18.30;99.90;;;;;;5116391;27;19919;-79
2022/07/10 12:40:30;;;;;;;;;;;18.20;99.90;;;;;;5096094;27;19986;-78
2022/07/10 12:43:06;;;;;;;;;;;18.20;99.90;;;;;;5137419;27;19923;-78
2022/07/10 12:45:32;;;;;;;;;;;18.00;99.90;;;;;;5120880;27;19919;-76
2022/07/10 12:48:04;;;;;;;;;;;17.70;99.90;;;;;;5141119;27;20392;-80
2022/07/10 12:50:29;;;;;;;;;;;17.40;99.90;;;;;;5115960;27;19959;-76
2022/07/10 12:53:08;;;;;;;;;;;17.30;99.90;;;;;;5100334;27;20403;-78
2022/07/10 12:55:37;;;;;;;;;;;17.20;99.90;;;;;;5114941;27;20258;-80
2022/07/10 12:58:14;;;;;;;;;;;17.20;99.90;;;;;;5105760;27;19918;-80
2022/07/10 13:00:43;;;;;;;;;;;17.10;99.90;;;;;;5114983;27;20328;-80
2022/07/10 13:03:10;;;;;;;;;;;17.00;99.90;;;;;;5105412;27;19926;-78
2022/07/10 13:05:41;;;;;;;;;;;17.00;99.90;;;;;;5122296;27;20391;-77
2022/07/10 13:08:12;;;;;;;;;;;17.00;99.90;;;;;;5129617;27;20375;-80
2022/07/10 13:10:39;;;;;;;;;;;17.20;99.90;;;;;;5115222;27;19919;-76
2022/07/10 13:13:04;;;;;;;;;;;17.30;99.90;;;;;;5125026;27;19938;-79
2022/07/10 13:15:34;;;;;;;;;;;17.50;99.90;;;;;;5117888;27;19915;-80
2022/07/10 13:17:59;;;;;;;;;;;17.80;99.90;;;;;;5123927;27;19923;-78
2022/07/10 13:20:25;;;;;;;;;;;18.00;99.90;;;;;;5112390;27;20322;-80
2022/07/10 13:22:51;;;;;;;;;;;18.10;99.90;;;;;;5147311;27;20391;-79
2022/07/10 13:25:16;;;;;;;;;;;18.30;99.90;;;;;;5123897;27;20022;-78
2022/07/10 13:27:42;;;;;;;;;;;18.30;99.90;;;;;;5091462;27;20371;-78
2022/07/10 13:30:08;;;;;;;;;;;18.30;99.90;;;;;;5119237;27;19919;-79
2022/07/10 13:32:36;;;;;;;;;;;18.40;99.90;;;;;;5136974;27;19926;-77
2022/07/10 13:35:02;;;;;;;;;;;18.30;99.90;;;;;;5122257;27;19919;-80
2022/07/10 13:37:27;;;;;;;;;;;18.30;99.90;;;;;;5128748;27;20399;-79
2022/07/10 13:39:54;;;;;;;;;;;18.60;99.90;;;;;;5123920;27;20059;-78
2022/07/10 13:42:20;;;;;;;;;;;18.90;99.90;;;;;;5111364;27;20041;-77
2022/07/10 13:44:52;;;;;;;;;;;19.20;99.90;;;;;;5115423;27;20409;-78
2022/07/10 13:47:23;;;;;;;;;;;19.40;99.90;;;;;;5123215;27;19923;-78
2022/07/10 13:49:49;;;;;;;;;;;19.40;99.90;;;;;;5100060;27;20378;-78
2022/07/10 13:52:17;;;;;;;;;;;19.10;99.90;;;;;;5115589;27;20038;-80
2022/07/10 13:54:43;;;;;;;;;;;18.80;99.90;;;;;;5105769;27;20006;-78
2022/07/10 13:57:08;;;;;;;;;;;18.60;99.90;;;;;;5119723;27;19922;-77
2022/07/10 13:59:43;;;;;;;;;;;18.40;99.90;;;;;;5130815;27;19922;-81
2022/07/10 14:02:08;;;;;;;;;;;18.40;99.90;;;;;;5120268;27;20633;-80
2022/07/10 14:04:35;;;;;;;;;;;18.40;99.90;;;;;;5130977;27;20403;-76
2022/07/10 14:07:01;;;;;;;;;;;18.40;99.90;;;;;;5122930;27;19919;-79
2022/07/10 14:09:28;;;;;;;;;;;18.40;99.90;;;;;;5132274;27;19926;-78
2022/07/10 14:11:54;;;;;;;;;;;18.50;99.90;;;;;;5125857;27;19926;-80
2022/07/10 14:14:19;;;;;;;;;;;18.50;99.90;;;;;;5146111;27;19919;-80
2022/07/10 14:16:45;;;;;;;;;;;18.50;99.90;;;;;;5126303;27;20263;-77
2022/07/10 14:19:10;;;;;;;;;;;18.70;99.90;;;;;;5095379;27;19964;-79
2022/07/10 14:21:38;;;;;;;;;;;18.70;99.90;;;;;;5097339;27;19927;-78
2022/07/10 14:24:04;;;;;;;;;;;18.70;99.90;;;;;;5113498;27;19919;-80
2022/07/10 14:26:29;;;;;;;;;;;18.80;99.90;;;;;;5138565;27;19926;-78
2022/07/10 14:28:55;;;;;;;;;;;18.80;99.90;;;;;;5120212;27;20288;-79